Time;durP1;ratioP1;P1;durP2;ratioP2;P2;SDS_P1;SDS_P2;PMS_P1;PMS_P2;Temp;Humidity;BMP_temperature;BMP_pressure;BME280_temperature;BME280_humidity;BME280_pressure;Samples;Min_cycle;Max_cycle;Signal;HPM_P1;HPM_P2
2023/07/31 00:02:21;;;;;;;2.75;1.20;;;;;;;;;;5053094;28;20021;-72
2023/07/31 00:04:47;;;;;;;3.70;1.50;;;;;;;;;;5052767;28;20029;-72
2023/07/31 00:07:12;;;;;;;2.70;1.25;;;;;;;;;;5053332;28;20756;-73
2023/07/31 00:09:37;;;;;;;6.28;1.50;;;;;;;;;;5053403;28;20024;-72
2023/07/31 00:12:03;;;;;;;5.05;1.30;;;;;;;;;;5051905;28;20033;-72
2023/07/31 00:14:28;;;;;;;4.88;1.40;;;;;;;;;;5052077;28;20087;-71
2023/07/31 00:16:53;;;;;;;4.78;1.40;;;;;;;;;;5053569;28;20025;-72
2023/07/31 00:19:19;;;;;;;2.35;1.25;;;;;;;;;;5052611;28;20024;-72
2023/07/31 00:21:44;;;;;;;2.38;1.30;;;;;;;;;;5052504;28;20032;-72
2023/07/31 00:24:09;;;;;;;2.65;1.30;;;;;;;;;;5052845;28;20028;-72
2023/07/31 00:26:35;;;;;;;3.53;1.40;;;;;;;;;;5051920;28;20024;-71
2023/07/31 00:29:00;;;;;;;4.60;1.20;;;;;;;;;;5052232;28;20047;-71
2023/07/31 00:31:25;;;;;;;2.85;1.25;;;;;;;;;;5052878;28;20296;-71
2023/07/31 00:33:50;;;;;;;4.25;1.55;;;;;;;;;;5053201;28;20029;-71
2023/07/31 00:36:17;;;;;;;4.35;1.20;;;;;;;;;;5051742;28;20036;-71
2023/07/31 00:38:42;;;;;;;1.85;1.05;;;;;;;;;;5052727;28;20025;-72
2023/07/31 00:41:08;;;;;;;3.37;1.40;;;;;;;;;;5052520;28;20035;-71
2023/07/31 00:43:33;;;;;;;2.90;1.38;;;;;;;;;;5053248;28;20333;-71
2023/07/31 00:45:58;;;;;;;2.03;1.07;;;;;;;;;;5053260;28;20024;-71
2023/07/31 00:48:23;;;;;;;2.87;1.40;;;;;;;;;;5051880;28;20261;-71
2023/07/31 00:50:50;;;;;;;2.17;1.20;;;;;;;;;;5052918;28;20288;-71
2023/07/31 00:53:15;;;;;;;3.42;1.35;;;;;;;;;;5052995;28;20115;-72
2023/07/31 00:55:40;;;;;;;4.28;1.38;;;;;;;;;;5052997;28;20483;-69
2023/07/31 00:58:05;;;;;;;4.50;1.23;;;;;;;;;;5052825;28;20028;-71
2023/07/31 01:00:31;;;;;;;3.13;1.10;;;;;;;;;;5052783;28;20032;-71
2023/07/31 01:02:56;;;;;;;5.77;1.30;;;;;;;;;;5051509;28;20741;-70
2023/07/31 01:05:56;;;;;;;2.90;1.20;;;;;;;;;;5051637;28;20258;-70
2023/07/31 01:08:32;;;;;;;5.32;1.40;;;;;;;;;;5053025;28;20021;-70
2023/07/31 01:11:07;;;;;;;2.97;1.30;;;;;;;;;;5052973;28;20033;-70
2023/07/31 01:13:32;;;;;;;3.05;1.10;;;;;;;;;;5053090;28;20025;-71
2023/07/31 01:15:57;;;;;;;2.42;1.20;;;;;;;;;;5051326;28;20044;-71
2023/07/31 01:18:23;;;;;;;2.97;1.27;;;;;;;;;;5051346;28;20028;-70
2023/07/31 01:20:58;;;;;;;2.33;1.00;;;;;;;;;;5054495;28;20285;-72
2023/07/31 01:23:23;;;;;;;2.33;1.20;;;;;;;;;;5056706;28;20375;-71
2023/07/31 01:26:02;;;;;;;3.53;1.17;;;;;;;;;;5055678;28;20055;-71
2023/07/31 01:28:35;;;;;;;4.20;1.17;;;;;;;;;;5054977;28;20025;-70
2023/07/31 01:31:05;;;;;;;3.77;1.20;;;;;;;;;;5055653;28;20033;-71
2023/07/31 01:33:30;;;;;;;3.03;1.17;;;;;;;;;;5056614;28;20025;-71
2023/07/31 01:35:56;;;;;;;2.72;1.10;;;;;;;;;;5056482;28;20050;-71
2023/07/31 01:38:22;;;;;;;3.97;1.30;;;;;;;;;;5056484;28;20484;-71
2023/07/31 01:40:51;;;;;;;3.00;1.30;;;;;;;;;;5056464;28;20365;-71
2023/07/31 01:43:16;;;;;;;1.77;1.00;;;;;;;;;;5056543;28;20036;-71
2023/07/31 01:45:41;;;;;;;2.20;1.17;;;;;;;;;;5056590;28;20434;-70
2023/07/31 01:48:06;;;;;;;5.30;1.53;;;;;;;;;;5056360;28;20472;-71
2023/07/31 01:50:32;;;;;;;3.22;1.15;;;;;;;;;;5056119;28;20665;-71
2023/07/31 01:52:57;;;;;;;3.07;1.30;;;;;;;;;;5056200;28;20029;-71
2023/07/31 01:55:22;;;;;;;5.05;1.58;;;;;;;;;;5056084;28;20262;-72
2023/07/31 01:57:48;;;;;;;3.67;1.43;;;;;;;;;;5056368;28;20527;-70
2023/07/31 02:00:13;;;;;;;4.32;1.35;;;;;;;;;;5056194;28;20656;-71
2023/07/31 02:02:39;;;;;;;3.55;1.40;;;;;;;;;;5055951;28;20498;-71
2023/07/31 02:05:05;;;;;;;6.65;1.27;;;;;;;;;;5056218;28;20376;-71
2023/07/31 02:07:30;;;;;;;3.40;1.35;;;;;;;;;;5056022;28;20104;-72
2023/07/31 02:09:55;;;;;;;2.40;1.10;;;;;;;;;;5053874;28;20541;-72
2023/07/31 02:12:20;;;;;;;7.68;1.40;;;;;;;;;;5053844;28;20032;-72
2023/07/31 02:14:46;;;;;;;4.70;1.40;;;;;;;;;;5053701;28;20027;-71
2023/07/31 02:17:11;;;;;;;3.33;1.20;;;;;;;;;;5053808;28;20032;-72
2023/07/31 02:19:36;;;;;;;4.27;1.10;;;;;;;;;;5053574;28;20273;-71
2023/07/31 02:22:01;;;;;;;3.50;1.10;;;;;;;;;;5052454;28;20256;-71
2023/07/31 02:24:27;;;;;;;4.97;1.13;;;;;;;;;;5054135;28;20025;-71
2023/07/31 02:26:52;;;;;;;2.43;1.20;;;;;;;;;;5054313;28;20108;-71
2023/07/31 02:29:17;;;;;;;4.78;1.30;;;;;;;;;;5055552;28;20261;-71
2023/07/31 02:31:42;;;;;;;4.70;1.30;;;;;;;;;;5055249;28;20112;-71
2023/07/31 02:34:08;;;;;;;3.38;1.30;;;;;;;;;;5055439;28;20257;-70
2023/07/31 02:36:33;;;;;;;3.80;1.17;;;;;;;;;;5055426;28;20025;-70
2023/07/31 02:38:58;;;;;;;2.37;1.10;;;;;;;;;;5055634;28;20025;-70
2023/07/31 02:41:23;;;;;;;4.47;1.38;;;;;;;;;;5055384;28;20262;-70
2023/07/31 02:43:49;;;;;;;7.63;1.03;;;;;;;;;;5055190;28;20025;-71
2023/07/31 02:46:14;;;;;;;5.53;1.40;;;;;;;;;;5055144;28;20262;-71
2023/07/31 02:48:39;;;;;;;6.00;1.15;;;;;;;;;;5055163;28;20296;-70
2023/07/31 02:51:04;;;;;;;4.13;1.20;;;;;;;;;;5055370;28;20483;-71
2023/07/31 02:53:30;;;;;;;3.35;1.20;;;;;;;;;;5055035;28;20052;-70
2023/07/31 02:55:55;;;;;;;3.17;1.30;;;;;;;;;;5053698;28;20021;-70
2023/07/31 02:58:20;;;;;;;3.20;1.15;;;;;;;;;;5054982;28;20021;-70
2023/07/31 03:00:45;;;;;;;3.73;1.37;;;;;;;;;;5054874;28;20020;-70
2023/07/31 03:03:11;;;;;;;5.00;1.30;;;;;;;;;;5054791;28;20280;-69
2023/07/31 03:05:36;;;;;;;3.15;1.23;;;;;;;;;;5054733;28;20094;-71
2023/07/31 03:08:02;;;;;;;3.42;1.15;;;;;;;;;;5053313;28;20016;-71
2023/07/31 03:10:27;;;;;;;4.63;1.10;;;;;;;;;;5053556;28;20037;-73
2023/07/31 03:12:52;;;;;;;3.92;1.20;;;;;;;;;;5054507;28;20365;-72
2023/07/31 03:15:17;;;;;;;4.45;1.40;;;;;;;;;;5054952;28;20060;-72
2023/07/31 03:17:43;;;;;;;4.15;1.08;;;;;;;;;;5054630;28;20033;-71
2023/07/31 03:20:08;;;;;;;4.82;1.42;;;;;;;;;;5053096;28;20561;-73
2023/07/31 03:22:35;;;;;;;4.65;1.33;;;;;;;;;;5053930;28;20483;-71
2023/07/31 03:25:00;;;;;;;4.28;1.35;;;;;;;;;;5054432;28;20025;-72
2023/07/31 03:27:26;;;;;;;3.40;1.40;;;;;;;;;;5053146;28;20498;-70
2023/07/31 03:29:51;;;;;;;2.20;1.20;;;;;;;;;;5053137;28;20036;-71
2023/07/31 03:32:17;;;;;;;2.70;1.02;;;;;;;;;;5054326;28;20480;-70
2023/07/31 03:34:42;;;;;;;5.82;1.20;;;;;;;;;;5054368;28;20551;-70
2023/07/31 03:37:09;;;;;;;4.10;1.17;;;;;;;;;;5054253;28;20039;-71
2023/07/31 03:39:34;;;;;;;4.63;1.13;;;;;;;;;;5054256;28;20159;-71
2023/07/31 03:41:59;;;;;;;4.15;1.08;;;;;;;;;;5053790;28;20100;-71
2023/07/31 03:44:25;;;;;;;2.40;1.10;;;;;;;;;;5054048;28;20021;-71
2023/07/31 03:46:50;;;;;;;2.40;1.33;;;;;;;;;;5054077;28;20257;-71
2023/07/31 03:49:15;;;;;;;2.15;1.00;;;;;;;;;;5052714;28;20261;-71
2023/07/31 03:51:41;;;;;;;5.03;1.20;;;;;;;;;;5052615;28;20571;-71
2023/07/31 03:54:07;;;;;;;3.47;1.40;;;;;;;;;;5052696;28;20258;-71
2023/07/31 03:56:33;;;;;;;6.03;1.20;;;;;;;;;;5054029;28;20104;-70
2023/07/31 03:58:58;;;;;;;4.80;1.13;;;;;;;;;;5053808;28;20063;-71
2023/07/31 04:01:23;;;;;;;2.93;1.10;;;;;;;;;;5052403;28;20029;-71
2023/07/31 04:03:48;;;;;;;3.93;1.13;;;;;;;;;;5053951;28;20756;-71
2023/07/31 04:06:17;;;;;;;4.45;1.45;;;;;;;;;;5053933;28;20344;-71
2023/07/31 04:08:43;;;;;;;1.67;1.08;;;;;;;;;;5053637;28;20025;-71
2023/07/31 04:11:08;;;;;;;3.67;1.38;;;;;;;;;;5053876;28;20492;-71
2023/07/31 04:13:33;;;;;;;2.40;1.20;;;;;;;;;;5053597;28;20024;-71
2023/07/31 04:15:59;;;;;;;2.33;1.20;;;;;;;;;;5053598;28;20033;-70
2023/07/31 04:18:25;;;;;;;4.38;1.20;;;;;;;;;;5053580;28;20121;-70
2023/07/31 04:20:50;;;;;;;8.10;1.30;;;;;;;;;;5052183;28;20403;-72
2023/07/31 04:23:15;;;;;;;5.13;1.50;;;;;;;;;;5053426;28;20021;-70
2023/07/31 04:25:40;;;;;;;3.10;1.17;;;;;;;;;;5053565;28;20016;-71
2023/07/31 04:28:07;;;;;;;2.90;1.30;;;;;;;;;;5053642;28;20091;-72
2023/07/31 04:30:32;;;;;;;6.93;1.85;;;;;;;;;;5053230;28;20258;-70
2023/07/31 04:32:57;;;;;;;4.22;1.30;;;;;;;;;;5053300;28;20112;-70
2023/07/31 04:35:23;;;;;;;5.53;1.45;;;;;;;;;;5053230;28;20075;-71
2023/07/31 04:37:48;;;;;;;3.22;1.50;;;;;;;;;;5053266;28;20393;-70
2023/07/31 04:40:15;;;;;;;3.40;1.35;;;;;;;;;;5053327;28;20017;-70
2023/07/31 04:42:40;;;;;;;4.28;1.45;;;;;;;;;;5053575;28;20116;-70
2023/07/31 04:45:06;;;;;;;2.80;1.30;;;;;;;;;;5053686;28;20112;-70
2023/07/31 04:47:31;;;;;;;2.10;1.10;;;;;;;;;;5051804;28;20261;-70
2023/07/31 04:49:56;;;;;;;5.80;1.50;;;;;;;;;;5053071;28;20047;-71
2023/07/31 04:52:21;;;;;;;5.03;1.40;;;;;;;;;;5052991;28;20020;-71
2023/07/31 04:54:47;;;;;;;3.53;1.33;;;;;;;;;;5052098;28;20253;-71
2023/07/31 04:57:12;;;;;;;3.22;1.48;;;;;;;;;;5052056;28;20266;-71
2023/07/31 04:59:37;;;;;;;3.07;1.27;;;;;;;;;;5052755;28;20104;-70
2023/07/31 05:02:03;;;;;;;3.20;1.38;;;;;;;;;;5053119;28;20724;-70
2023/07/31 05:04:28;;;;;;;3.35;1.55;;;;;;;;;;5052814;28;20029;-71
2023/07/31 05:06:53;;;;;;;3.27;1.37;;;;;;;;;;5052988;28;20068;-70
2023/07/31 05:09:18;;;;;;;2.27;1.47;;;;;;;;;;5052971;28;20262;-71
2023/07/31 05:11:44;;;;;;;4.13;1.27;;;;;;;;;;5052862;28;20262;-71
2023/07/31 05:14:09;;;;;;;2.42;1.30;;;;;;;;;;5051495;28;20067;-72
2023/07/31 05:16:34;;;;;;;6.05;1.75;;;;;;;;;;5053060;28;20057;-72
2023/07/31 05:18:59;;;;;;;3.70;1.40;;;;;;;;;;5053071;28;20429;-72
2023/07/31 05:21:25;;;;;;;3.22;1.40;;;;;;;;;;5052954;28;20380;-70
2023/07/31 05:23:50;;;;;;;3.17;1.60;;;;;;;;;;5052428;28;20112;-70
2023/07/31 05:26:15;;;;;;;3.33;1.50;;;;;;;;;;5052612;28;20052;-71
2023/07/31 05:28:41;;;;;;;3.95;1.50;;;;;;;;;;5052601;28;20760;-70
2023/07/31 05:31:06;;;;;;;5.10;1.80;;;;;;;;;;5052625;28;20427;-71
2023/07/31 05:33:32;;;;;;;3.95;1.33;;;;;;;;;;5051311;28;20021;-70
2023/07/31 05:35:57;;;;;;;3.83;1.50;;;;;;;;;;5052826;28;20066;-70
2023/07/31 05:38:23;;;;;;;2.58;1.40;;;;;;;;;;5052482;28;20488;-71
2023/07/31 05:40:48;;;;;;;3.83;1.35;;;;;;;;;;5052456;28;20111;-70
2023/07/31 05:43:14;;;;;;;5.82;1.55;;;;;;;;;;5052616;28;20151;-71
2023/07/31 05:45:40;;;;;;;3.17;1.65;;;;;;;;;;5052544;28;20021;-71
2023/07/31 05:48:05;;;;;;;3.75;1.40;;;;;;;;;;5052364;28;20036;-71
2023/07/31 05:50:30;;;;;;;5.47;1.48;;;;;;;;;;5052087;28;20462;-71
2023/07/31 05:52:56;;;;;;;3.40;1.40;;;;;;;;;;5052466;28;20079;-73
2023/07/31 05:55:21;;;;;;;4.32;1.42;;;;;;;;;;5052123;28;20033;-71
2023/07/31 05:57:46;;;;;;;2.25;1.50;;;;;;;;;;5052170;28;20057;-71
2023/07/31 06:00:13;;;;;;;2.58;1.30;;;;;;;;;;5052707;28;20032;-71
2023/07/31 06:02:38;;;;;;;4.32;1.27;;;;;;;;;;5052245;28;20033;-71
2023/07/31 06:05:05;;;;;;;4.32;1.70;;;;;;;;;;5052689;28;20550;-71
2023/07/31 06:07:31;;;;;;;7.55;1.80;;;;;;;;;;5056285;28;20108;-70
2023/07/31 06:10:01;;;;;;;3.38;1.52;;;;;;;;;;5055860;28;20056;-71
2023/07/31 06:12:27;;;;;;;2.40;1.55;;;;;;;;;;5055568;28;20031;-71
2023/07/31 06:14:52;;;;;;;4.13;1.80;;;;;;;;;;5054233;28;20013;-70
2023/07/31 06:17:18;;;;;;;4.67;1.33;;;;;;;;;;5055819;28;20261;-71
2023/07/31 06:19:43;;;;;;;2.92;1.40;;;;;;;;;;5055410;28;20794;-70
2023/07/31 06:22:08;;;;;;;2.47;1.33;;;;;;;;;;5055633;28;20033;-71
2023/07/31 06:24:33;;;;;;;2.03;1.10;;;;;;;;;;5054251;28;20459;-71
2023/07/31 06:26:59;;;;;;;3.00;1.20;;;;;;;;;;5055635;28;20281;-71
2023/07/31 06:29:24;;;;;;;4.63;1.40;;;;;;;;;;5055923;28;20254;-71
2023/07/31 06:31:49;;;;;;;3.80;1.30;;;;;;;;;;5055740;28;20075;-70
2023/07/31 06:34:15;;;;;;;3.72;1.40;;;;;;;;;;5055402;28;20055;-71
2023/07/31 06:36:40;;;;;;;3.90;1.50;;;;;;;;;;5055360;28;20029;-70
2023/07/31 06:39:05;;;;;;;2.80;1.20;;;;;;;;;;5055319;28;20056;-71
2023/07/31 06:41:30;;;;;;;3.00;1.50;;;;;;;;;;5055627;28;20799;-71
2023/07/31 06:43:56;;;;;;;3.08;1.50;;;;;;;;;;5055463;28;20618;-71
2023/07/31 06:46:21;;;;;;;2.30;1.30;;;;;;;;;;5055134;28;20031;-71
2023/07/31 06:48:46;;;;;;;2.47;1.40;;;;;;;;;;5053864;28;20025;-71
2023/07/31 06:51:11;;;;;;;7.17;1.50;;;;;;;;;;5055063;28;20250;-71
2023/07/31 06:53:37;;;;;;;3.55;1.33;;;;;;;;;;5054971;28;20258;-71
2023/07/31 06:56:02;;;;;;;2.22;1.27;;;;;;;;;;5055382;28;20021;-72
2023/07/31 06:58:27;;;;;;;3.58;1.35;;;;;;;;;;5054925;28;20036;-72
2023/07/31 07:00:52;;;;;;;5.22;1.30;;;;;;;;;;5054801;28;20021;-70
2023/07/31 07:03:18;;;;;;;5.43;1.50;;;;;;;;;;5054678;28;20083;-72
2023/07/31 07:05:43;;;;;;;4.65;1.55;;;;;;;;;;5054847;28;20276;-72
2023/07/31 07:08:09;;;;;;;5.00;1.70;;;;;;;;;;5055296;28;20025;-71
2023/07/31 07:10:34;;;;;;;4.38;1.55;;;;;;;;;;5054645;28;20258;-72
2023/07/31 07:12:59;;;;;;;2.60;1.50;;;;;;;;;;5053764;28;20021;-72
2023/07/31 07:15:24;;;;;;;6.47;1.50;;;;;;;;;;5054632;28;20090;-72
2023/07/31 07:17:50;;;;;;;4.68;1.48;;;;;;;;;;5053612;28;20320;-72
2023/07/31 07:20:15;;;;;;;4.47;1.40;;;;;;;;;;5054313;28;20373;-73
2023/07/31 07:22:42;;;;;;;3.80;1.40;;;;;;;;;;5055015;28;20116;-73
2023/07/31 07:25:08;;;;;;;2.88;1.50;;;;;;;;;;5054608;28;20032;-72
2023/07/31 07:27:34;;;;;;;4.43;1.50;;;;;;;;;;5054373;28;20029;-73
2023/07/31 07:29:59;;;;;;;5.40;1.50;;;;;;;;;;5054596;28;20365;-73
2023/07/31 07:32:24;;;;;;;2.28;1.40;;;;;;;;;;5054302;28;20396;-74
2023/07/31 07:34:50;;;;;;;2.28;1.33;;;;;;;;;;5054358;28;20391;-76
2023/07/31 07:37:15;;;;;;;4.70;1.20;;;;;;;;;;5056090;28;20490;-77
2023/07/31 07:39:41;;;;;;;2.85;1.40;;;;;;;;;;5053113;28;20032;-73
2023/07/31 07:42:06;;;;;;;4.60;1.52;;;;;;;;;;5054175;28;20438;-73
2023/07/31 07:44:31;;;;;;;7.55;1.45;;;;;;;;;;5053999;28;20031;-74
2023/07/31 07:46:57;;;;;;;3.75;1.55;;;;;;;;;;5053995;28;20096;-74
2023/07/31 07:49:22;;;;;;;5.07;1.52;;;;;;;;;;5053976;28;20021;-74
2023/07/31 07:51:49;;;;;;;3.72;1.30;;;;;;;;;;5053871;28;20025;-73
2023/07/31 07:54:14;;;;;;;2.33;1.48;;;;;;;;;;5052674;28;20017;-73
2023/07/31 07:56:39;;;;;;;4.72;1.60;;;;;;;;;;5053770;28;20025;-73
2023/07/31 07:59:05;;;;;;;2.50;1.40;;;;;;;;;;5053897;28;20055;-72
2023/07/31 08:01:30;;;;;;;6.80;1.40;;;;;;;;;;5052181;28;20033;-74
2023/07/31 08:03:55;;;;;;;3.95;1.60;;;;;;;;;;5054688;28;20062;-72
2023/07/31 08:06:21;;;;;;;1.77;1.30;;;;;;;;;;5052492;28;20438;-72
2023/07/31 08:08:46;;;;;;;3.63;1.60;;;;;;;;;;5053121;28;20028;-72
2023/07/31 08:11:11;;;;;;;3.27;1.63;;;;;;;;;;5052596;28;20074;-73
2023/07/31 08:13:37;;;;;;;5.27;1.70;;;;;;;;;;5053522;28;20254;-73
2023/07/31 08:16:04;;;;;;;3.10;1.40;;;;;;;;;;5052207;28;20254;-72
2023/07/31 08:18:30;;;;;;;4.30;1.60;;;;;;;;;;5053790;28;20518;-73
2023/07/31 08:20:56;;;;;;;4.47;1.63;;;;;;;;;;5052124;28;20451;-73
2023/07/31 08:23:21;;;;;;;6.60;1.60;;;;;;;;;;5052122;28;20025;-73
2023/07/31 08:25:46;;;;;;;4.68;1.85;;;;;;;;;;5053385;28;20725;-74
2023/07/31 08:28:12;;;;;;;4.65;1.67;;;;;;;;;;5051683;28;20021;-73
2023/07/31 08:30:37;;;;;;;3.60;1.60;;;;;;;;;;5053258;28;20025;-74
2023/07/31 08:33:02;;;;;;;8.60;1.83;;;;;;;;;;5053496;28;20131;-74
2023/07/31 08:35:28;;;;;;;4.65;1.70;;;;;;;;;;5053151;28;20021;-73
2023/07/31 08:37:53;;;;;;;6.28;1.75;;;;;;;;;;5053177;28;20017;-73
2023/07/31 08:40:19;;;;;;;2.38;1.70;;;;;;;;;;5052997;28;20480;-73
2023/07/31 08:42:49;;;;;;;4.88;1.90;;;;;;;;;;5053198;28;20112;-74
2023/07/31 08:45:16;;;;;;;3.92;1.60;;;;;;;;;;5052914;28;20064;-73
2023/07/31 08:47:47;;;;;;;3.85;1.50;;;;;;;;;;5053024;28;20032;-74
2023/07/31 08:50:18;;;;;;;4.28;1.65;;;;;;;;;;5053018;28;20036;-73
2023/07/31 08:52:43;;;;;;;3.10;1.42;;;;;;;;;;5053210;28;20552;-73
2023/07/31 08:55:09;;;;;;;5.70;1.73;;;;;;;;;;5052959;28;20016;-73
2023/07/31 08:57:37;;;;;;;6.45;1.70;;;;;;;;;;5052806;28;20032;-73
2023/07/31 09:00:05;;;;;;;3.50;1.50;;;;;;;;;;5052776;28;20017;-74
2023/07/31 09:02:37;;;;;;;3.92;1.40;;;;;;;;;;5053077;28;20029;-74
2023/07/31 09:05:05;;;;;;;3.42;1.50;;;;;;;;;;5052734;28;20029;-74
2023/07/31 09:07:31;;;;;;;1.95;1.40;;;;;;;;;;5052944;28;20426;-74
2023/07/31 09:09:57;;;;;;;3.63;1.70;;;;;;;;;;5053015;28;20112;-73
2023/07/31 09:12:22;;;;;;;1.90;1.55;;;;;;;;;;5051511;28;20123;-72
2023/07/31 09:14:48;;;;;;;4.68;1.65;;;;;;;;;;5052697;28;20048;-73
2023/07/31 09:17:13;;;;;;;3.53;1.60;;;;;;;;;;5051382;28;20031;-74
2023/07/31 09:19:38;;;;;;;4.32;1.73;;;;;;;;;;5052729;28;20098;-74
2023/07/31 09:22:05;;;;;;;2.90;1.60;;;;;;;;;;5051367;28;20052;-73
2023/07/31 09:24:32;;;;;;;5.25;1.70;;;;;;;;;;5052494;28;20476;-73
2023/07/31 09:26:59;;;;;;;4.88;1.83;;;;;;;;;;5052595;28;20033;-74
2023/07/31 09:29:26;;;;;;;4.10;1.58;;;;;;;;;;5052850;28;20025;-74
2023/07/31 09:31:52;;;;;;;3.72;1.55;;;;;;;;;;5052479;28;20021;-73
2023/07/31 09:34:17;;;;;;;3.92;1.95;;;;;;;;;;5052604;28;20067;-73
2023/07/31 09:36:47;;;;;;;4.30;1.52;;;;;;;;;;5052642;28;20394;-73
2023/07/31 09:39:17;;;;;;;2.45;1.48;;;;;;;;;;5053065;28;20033;-73
2023/07/31 09:41:46;;;;;;;4.38;1.60;;;;;;;;;;5054706;28;20021;-73
2023/07/31 09:44:11;;;;;;;6.13;1.60;;;;;;;;;;5056420;28;20496;-73
2023/07/31 09:46:37;;;;;;;2.80;1.40;;;;;;;;;;5056515;28;20032;-73
2023/07/31 09:49:14;;;;;;;3.97;1.90;;;;;;;;;;5056643;28;20024;-73
2023/07/31 09:51:40;;;;;;;3.03;1.45;;;;;;;;;;5056287;28;20033;-73
2023/07/31 09:54:13;;;;;;;4.68;1.73;;;;;;;;;;5054941;28;20025;-72
2023/07/31 09:56:43;;;;;;;3.33;1.70;;;;;;;;;;5054941;28;20553;-73
2023/07/31 09:59:11;;;;;;;3.25;1.60;;;;;;;;;;5056098;28;20115;-73
2023/07/31 10:01:37;;;;;;;2.67;1.50;;;;;;;;;;5055989;28;20365;-73
2023/07/31 10:04:05;;;;;;;3.05;1.50;;;;;;;;;;5055875;28;20044;-73
2023/07/31 10:06:31;;;;;;;3.55;1.67;;;;;;;;;;5054566;28;20025;-72
2023/07/31 10:08:57;;;;;;;3.63;1.60;;;;;;;;;;5054543;28;20112;-72
2023/07/31 10:11:26;;;;;;;4.93;2.13;;;;;;;;;;5055766;28;20104;-73
2023/07/31 10:13:53;;;;;;;5.13;1.70;;;;;;;;;;5054517;28;20036;-73
2023/07/31 10:16:20;;;;;;;4.30;1.55;;;;;;;;;;5055587;28;20059;-73
2023/07/31 10:18:46;;;;;;;4.43;1.55;;;;;;;;;;5055047;28;20056;-74
2023/07/31 10:21:11;;;;;;;3.83;1.75;;;;;;;;;;5055354;28;20072;-73
2023/07/31 10:23:38;;;;;;;4.30;1.48;;;;;;;;;;5055443;28;20024;-73
2023/07/31 10:26:06;;;;;;;3.60;1.63;;;;;;;;;;5053170;28;20021;-73
2023/07/31 10:28:32;;;;;;;2.78;1.65;;;;;;;;;;5055623;28;20044;-73
2023/07/31 10:30:58;;;;;;;3.80;1.70;;;;;;;;;;5055493;28;20021;-73
2023/07/31 10:33:23;;;;;;;3.73;1.60;;;;;;;;;;5055489;28;20029;-73
2023/07/31 10:35:48;;;;;;;4.88;1.70;;;;;;;;;;5054178;28;20270;-73
2023/07/31 10:38:14;;;;;;;5.25;1.85;;;;;;;;;;5054071;28;20040;-72
2023/07/31 10:40:40;;;;;;;4.18;1.65;;;;;;;;;;5055274;28;20052;-72
2023/07/31 10:43:08;;;;;;;2.08;1.45;;;;;;;;;;5053976;28;20079;-73
2023/07/31 10:45:38;;;;;;;4.60;1.63;;;;;;;;;;5054094;28;20033;-74
2023/07/31 10:48:05;;;;;;;3.17;1.70;;;;;;;;;;5055292;28;20025;-73
2023/07/31 10:50:36;;;;;;;3.83;1.73;;;;;;;;;;5055332;28;20459;-73
2023/07/31 10:53:01;;;;;;;3.15;1.70;;;;;;;;;;5055273;28;20035;-72
2023/07/31 10:55:30;;;;;;;3.50;1.58;;;;;;;;;;5055141;28;20017;-73
2023/07/31 10:58:09;;;;;;;4.82;1.67;;;;;;;;;;5053764;28;20025;-71
2023/07/31 11:00:38;;;;;;;3.90;1.75;;;;;;;;;;5055232;28;20029;-72
2023/07/31 11:03:10;;;;;;;2.95;1.70;;;;;;;;;;5053607;28;20094;-73
2023/07/31 11:06:02;;;;;;;4.68;1.58;;;;;;;;;;5054995;28;20025;-72
2023/07/31 11:08:40;;;;;;;3.85;1.60;;;;;;;;;;5055167;28;20028;-71
2023/07/31 11:11:09;;;;;;;4.10;1.60;;;;;;;;;;5054928;28;20029;-72
2023/07/31 11:13:54;;;;;;;2.47;1.58;;;;;;;;;;5053398;28;20028;-71
2023/07/31 11:16:24;;;;;;;1.73;1.60;;;;;;;;;;5054910;28;20025;-72
2023/07/31 11:18:51;;;;;;;4.53;1.70;;;;;;;;;;5054558;28;20090;-72
2023/07/31 11:21:21;;;;;;;4.82;1.65;;;;;;;;;;5054900;28;20108;-72
2023/07/31 11:23:49;;;;;;;3.67;1.50;;;;;;;;;;5054251;28;20021;-72
2023/07/31 11:26:14;;;;;;;4.13;1.50;;;;;;;;;;5053744;28;20031;-74
2023/07/31 11:28:42;;;;;;;4.57;1.60;;;;;;;;;;5053542;28;20099;-72
2023/07/31 11:31:09;;;;;;;2.47;1.60;;;;;;;;;;5053699;28;20449;-72
2023/07/31 11:33:34;;;;;;;2.80;1.52;;;;;;;;;;5054157;28;20021;-72
2023/07/31 11:36:00;;;;;;;4.00;1.83;;;;;;;;;;5054480;28;20147;-73
2023/07/31 11:38:29;;;;;;;2.55;1.58;;;;;;;;;;5054300;28;20112;-72
2023/07/31 11:41:02;;;;;;;1.90;1.42;;;;;;;;;;5054112;28;20021;-72
2023/07/31 11:43:28;;;;;;;4.60;1.63;;;;;;;;;;5054151;28;20032;-73
2023/07/31 11:45:55;;;;;;;3.33;1.60;;;;;;;;;;5054106;28;20033;-72
2023/07/31 11:48:23;;;;;;;2.40;1.50;;;;;;;;;;5052886;28;20029;-72
2023/07/31 11:50:51;;;;;;;3.38;1.50;;;;;;;;;;5054169;28;20479;-72
2023/07/31 11:53:20;;;;;;;3.08;1.33;;;;;;;;;;5054188;28;20033;-73
2023/07/31 11:55:46;;;;;;;2.47;1.50;;;;;;;;;;5054214;28;20476;-73
2023/07/31 11:58:13;;;;;;;9.90;1.67;;;;;;;;;;5054088;28;20028;-72
2023/07/31 12:00:38;;;;;;;2.72;1.30;;;;;;;;;;5053980;28;20518;-72
2023/07/31 12:03:04;;;;;;;2.90;1.50;;;;;;;;;;5053361;28;20032;-72
2023/07/31 12:05:29;;;;;;;2.88;1.60;;;;;;;;;;5053701;28;20391;-72
2023/07/31 12:07:55;;;;;;;2.70;1.40;;;;;;;;;;5052686;28;20487;-73
2023/07/31 12:10:31;;;;;;;2.42;1.35;;;;;;;;;;5053545;28;20043;-72
2023/07/31 12:12:58;;;;;;;2.28;1.45;;;;;;;;;;5053647;28;20603;-73
2023/07/31 12:15:29;;;;;;;8.57;1.50;;;;;;;;;;5053812;28;20032;-73
2023/07/31 12:17:54;;;;;;;3.38;1.40;;;;;;;;;;5053915;28;20525;-73
2023/07/31 12:20:20;;;;;;;2.90;1.30;;;;;;;;;;5053285;28;20033;-73
2023/07/31 12:22:45;;;;;;;6.10;1.40;;;;;;;;;;5053693;28;20020;-73
2023/07/31 12:25:15;;;;;;;3.47;1.40;;;;;;;;;;5052069;28;20017;-72
2023/07/31 12:27:44;;;;;;;1.88;1.30;;;;;;;;;;5053920;28;20327;-72
2023/07/31 12:30:34;;;;;;;3.03;1.38;;;;;;;;;;5053498;28;20028;-73
2023/07/31 12:33:06;;;;;;;1.83;1.30;;;;;;;;;;5053759;28;20028;-73
2023/07/31 12:35:40;;;;;;;5.35;1.30;;;;;;;;;;5051993;28;20051;-73
2023/07/31 12:38:05;;;;;;;;;;;;;;;;;;5053922;28;20128;-72
2023/07/31 12:40:31;;;;;;;2.20;1.30;;;;;;;;;;5052992;28;20391;-72
2023/07/31 12:42:56;;;;;;;3.60;1.25;;;;;;;;;;5053227;28;20032;-74
2023/07/31 12:45:23;;;;;;;2.83;1.30;;;;;;;;;;5051966;28;20082;-72
2023/07/31 12:47:48;;;;;;;1.92;1.17;;;;;;;;;;5053020;28;20020;-73
2023/07/31 12:50:13;;;;;;;2.63;1.17;;;;;;;;;;5051785;28;20127;-74
2023/07/31 12:52:38;;;;;;;2.15;1.20;;;;;;;;;;5053353;28;20268;-75
2023/07/31 12:55:04;;;;;;;2.63;1.50;;;;;;;;;;5052865;28;20013;-74
2023/07/31 12:57:30;;;;;;;4.43;1.40;;;;;;;;;;5052818;28;20818;-74
2023/07/31 12:59:55;;;;;;;5.03;1.58;;;;;;;;;;5051547;28;20024;-74
2023/07/31 13:02:20;;;;;;;1.65;1.30;;;;;;;;;;5051671;28;20029;-74
2023/07/31 13:04:46;;;;;;;2.20;1.33;;;;;;;;;;5052812;28;20025;-74
2023/07/31 13:07:11;;;;;;;3.53;1.50;;;;;;;;;;5052871;28;20273;-74
2023/07/31 13:09:36;;;;;;;2.60;1.55;;;;;;;;;;5052787;28;20276;-74
2023/07/31 13:12:01;;;;;;;2.15;1.40;;;;;;;;;;5053062;28;20029;-74
2023/07/31 13:14:27;;;;;;;3.27;1.50;;;;;;;;;;5052662;28;20112;-74
2023/07/31 13:16:52;;;;;;;2.83;1.65;;;;;;;;;;5056538;28;20598;-74
2023/07/31 13:19:17;;;;;;;4.68;1.70;;;;;;;;;;5056894;28;20036;-75
2023/07/31 13:21:43;;;;;;;3.97;1.30;;;;;;;;;;5057115;28;20360;-74
2023/07/31 13:24:09;;;;;;;2.40;1.30;;;;;;;;;;5056673;28;20278;-74
2023/07/31 13:26:35;;;;;;;6.85;1.70;;;;;;;;;;5055534;28;20052;-74
2023/07/31 13:29:01;;;;;;;3.78;1.52;;;;;;;;;;5056892;28;20492;-74
2023/07/31 13:31:26;;;;;;;5.37;1.53;;;;;;;;;;5056618;28;20039;-74
2023/07/31 13:33:51;;;;;;;7.75;1.65;;;;;;;;;;5055431;28;20256;-74
2023/07/31 13:36:16;;;;;;;5.03;1.60;;;;;;;;;;5056732;28;20021;-74
2023/07/31 13:38:42;;;;;;;6.67;1.90;;;;;;;;;;5056860;28;20312;-74
2023/07/31 13:41:07;;;;;;;2.83;1.50;;;;;;;;;;5055215;28;20266;-74
2023/07/31 13:43:32;;;;;;;4.07;1.60;;;;;;;;;;5056455;28;20256;-74
2023/07/31 13:46:03;;;;;;;3.75;1.50;;;;;;;;;;5056561;28;20772;-73
2023/07/31 13:48:28;;;;;;;2.92;1.42;;;;;;;;;;5056787;28;20024;-74
2023/07/31 13:50:53;;;;;;;3.60;1.50;;;;;;;;;;5056231;28;20385;-73
2023/07/31 13:53:19;;;;;;;2.97;1.60;;;;;;;;;;5056468;28;20289;-74
2023/07/31 13:55:45;;;;;;;1.93;1.20;;;;;;;;;;5056123;28;20245;-73
2023/07/31 13:58:10;;;;;;;3.55;1.50;;;;;;;;;;5056491;28;20341;-71
2023/07/31 14:00:36;;;;;;;3.00;1.47;;;;;;;;;;5056074;28;20102;-75
2023/07/31 14:03:01;;;;;;;9.17;1.60;;;;;;;;;;5054883;28;20269;-74
2023/07/31 14:05:26;;;;;;;2.30;1.50;;;;;;;;;;5056389;28;20733;-75
2023/07/31 14:07:52;;;;;;;3.17;1.60;;;;;;;;;;5054759;28;20352;-75
2023/07/31 14:10:17;;;;;;;2.87;1.43;;;;;;;;;;5056889;28;20017;-75
2023/07/31 14:12:42;;;;;;;4.10;1.40;;;;;;;;;;5056168;28;20315;-75
2023/07/31 14:15:08;;;;;;;4.37;1.53;;;;;;;;;;5055846;28;20246;-74
2023/07/31 14:17:33;;;;;;;4.25;1.67;;;;;;;;;;5055675;28;20289;-74
2023/07/31 14:19:59;;;;;;;3.43;1.23;;;;;;;;;;5055670;28;20039;-75
2023/07/31 14:22:31;;;;;;;1.98;1.50;;;;;;;;;;5055722;28;20261;-75
2023/07/31 14:24:56;;;;;;;5.05;1.65;;;;;;;;;;5055692;28;20404;-74
2023/07/31 14:27:21;;;;;;;2.75;1.70;;;;;;;;;;5037663;28;20021;-75
2023/07/31 14:29:46;;;;;;;5.40;1.38;;;;;;;;;;5054204;28;20025;-75
2023/07/31 14:32:12;;;;;;;2.70;1.33;;;;;;;;;;5052332;28;20063;-75
2023/07/31 14:34:37;;;;;;;2.92;1.60;;;;;;;;;;5052561;28;20021;-74
2023/07/31 14:37:03;;;;;;;2.30;1.50;;;;;;;;;;5054894;28;20166;-74
2023/07/31 14:39:28;;;;;;;4.15;1.80;;;;;;;;;;5053405;28;20036;-75